createdAt,value
2016-04-13T00:00:01.157Z,10.23
2016-04-13T00:00:11.157Z,10.27
2016-04-13T00:00:21.160Z,10.21
2016-04-13T00:00:31.160Z,10.23
2016-04-13T00:00:41.175Z,10.2
2016-04-13T00:00:51.191Z,10.25
2016-04-13T00:01:01.175Z,10.18
2016-04-13T00:01:11.175Z,10.21
2016-04-13T00:01:21.194Z,10.24
2016-04-13T00:01:31.210Z,10.15
2016-04-13T00:01:41.194Z,10.1
2016-04-13T00:01:51.225Z,10.2
2016-04-13T00:02:01.210Z,10.03
2016-04-13T00:02:11.210Z,10.02
2016-04-13T00:02:21.227Z,10.12
2016-04-13T00:02:31.227Z,10.09
2016-04-13T00:02:41.227Z,10.09
2016-04-13T00:02:51.243Z,10.07
2016-04-13T00:03:01.243Z,10.07
2016-04-13T00:03:11.243Z,10.05
2016-04-13T00:03:21.246Z,10.07
2016-04-13T00:03:31.261Z,10.18
2016-04-13T00:03:41.261Z,10.1
2016-04-13T00:03:51.261Z,10.12
2016-04-13T00:04:01.261Z,10.12
2016-04-13T00:04:11.277Z,10.07
2016-04-13T00:04:21.280Z,10.05
2016-04-13T00:04:31.280Z,10.1
2016-04-13T00:04:41.296Z,10.09
2016-04-13T00:04:51.311Z,10.13
2016-04-13T00:05:01.296Z,10.06
2016-04-13T00:05:11.296Z,9.95
2016-04-13T00:05:21.313Z,10.07
2016-04-13T00:05:31.313Z,10.05
2016-04-13T00:05:41.313Z,10.05
2016-04-13T00:05:51.329Z,9.99
2016-04-13T00:06:01.329Z,10.03
2016-04-13T00:06:11.329Z,10.02
2016-04-13T00:06:21.332Z,10.06
2016-04-13T00:06:31.348Z,9.97
2016-04-13T00:06:41.348Z,9.97
2016-04-13T00:06:51.379Z,9.94
2016-04-13T00:07:01.363Z,9.94
2016-04-13T00:07:11.363Z,9.97
2016-04-13T00:07:21.365Z,9.92
2016-04-13T00:07:31.365Z,9.95
2016-04-13T00:07:41.381Z,9.94
2016-04-13T00:07:51.396Z,9.88
2016-04-13T00:08:01.396Z,9.91
2016-04-13T00:08:11.386Z,9.92
2016-04-13T00:08:21.404Z,9.91
2016-04-13T00:08:31.404Z,9.87
2016-04-13T00:08:41.404Z,9.88
2016-04-13T00:08:51.420Z,9.87
2016-04-13T00:09:01.420Z,9.91
2016-04-13T00:09:11.420Z,9.85
2016-04-13T00:09:21.423Z,9.87
2016-04-13T00:09:31.439Z,9.82
2016-04-13T00:09:41.439Z,9.84
2016-04-13T00:09:51.454Z,9.77
2016-04-13T00:10:01.439Z,9.81
2016-04-13T00:10:11.454Z,9.81
2016-04-13T00:10:21.456Z,9.84
2016-04-13T00:10:31.472Z,9.82
2016-04-13T00:10:41.472Z,9.84
2016-04-13T00:10:51.487Z,9.81
2016-04-13T00:11:01.472Z,9.8
2016-04-13T00:11:11.487Z,9.84
2016-04-13T00:11:21.490Z,9.74
2016-04-13T00:11:31.490Z,9.73
2016-04-13T00:11:41.490Z,9.84
2016-04-13T00:11:51.506Z,9.8
2016-04-13T00:12:01.506Z,9.77
2016-04-13T00:12:11.506Z,9.85
2016-04-13T00:12:21.525Z,9.81
2016-04-13T00:12:31.525Z,9.74
2016-04-13T00:12:41.525Z,9.77
2016-04-13T00:12:51.540Z,9.82
2016-04-13T00:13:01.540Z,9.8
2016-04-13T00:13:11.540Z,9.73
2016-04-13T00:13:21.542Z,9.74
2016-04-13T00:13:31.558Z,9.7
2016-04-13T00:13:41.558Z,9.73
2016-04-13T00:13:51.574Z,9.69
2016-04-13T00:14:01.558Z,9.7
2016-04-13T00:14:11.558Z,9.72
2016-04-13T00:14:21.577Z,9.69
2016-04-13T00:14:31.577Z,9.67
2016-04-13T00:14:41.592Z,9.66
2016-04-13T00:14:51.623Z,9.67
2016-04-13T00:15:01.592Z,9.67
2016-04-13T00:15:11.592Z,9.69
2016-04-13T00:15:21.611Z,9.7
2016-04-13T00:15:31.626Z,9.64
2016-04-13T00:15:41.611Z,9.62
2016-04-13T00:15:51.611Z,9.62
2016-04-13T00:16:01.626Z,9.64
2016-04-13T00:16:11.626Z,9.73
2016-04-13T00:16:21.628Z,9.66
2016-04-13T00:16:31.644Z,9.72
2016-04-13T00:16:41.644Z,9.58
2016-04-13T00:16:51.660Z,9.69
2016-04-13T00:17:01.660Z,9.66
2016-04-13T00:17:11.660Z,9.59
2016-04-13T00:17:21.663Z,9.55
2016-04-13T00:17:31.663Z,9.62
2016-04-13T00:17:41.678Z,9.62
2016-04-13T00:17:51.678Z,9.66
2016-04-13T00:18:01.694Z,9.66
2016-04-13T00:18:11.678Z,9.66
2016-04-13T00:18:21.697Z,9.62
2016-04-13T00:18:31.713Z,9.63
2016-04-13T00:18:41.697Z,9.63
2016-04-13T00:18:51.713Z,9.52
2016-04-13T00:19:01.713Z,9.64
2016-04-13T00:19:11.713Z,9.55
2016-04-13T00:19:21.730Z,9.54
2016-04-13T00:19:31.730Z,9.56
2016-04-13T00:19:41.730Z,9.56
2016-04-13T00:19:51.746Z,9.64
2016-04-13T00:20:01.746Z,9.64
2016-04-13T00:20:11.746Z,9.64
2016-04-13T00:20:21.750Z,9.63
2016-04-13T00:20:31.750Z,9.66
2016-04-13T00:20:41.765Z,9.56
2016-04-13T00:20:51.781Z,9.58
2016-04-13T00:21:01.765Z,9.62
2016-04-13T00:21:11.781Z,9.63
2016-04-13T00:21:21.784Z,9.62
2016-04-13T00:21:31.784Z,9.58
2016-04-13T00:21:41.784Z,9.54
2016-04-13T00:21:51.800Z,9.64
2016-04-13T00:22:01.800Z,9.58
2016-04-13T00:22:11.815Z,9.67
2016-04-13T00:22:21.816Z,9.67
2016-04-13T00:22:31.816Z,9.72
2016-04-13T00:22:41.816Z,9.69
2016-04-13T00:22:51.832Z,9.69
2016-04-13T00:23:01.832Z,9.64
2016-04-13T00:23:11.848Z,9.64
2016-04-13T00:23:21.836Z,9.66
2016-04-13T00:23:31.852Z,9.67
2016-04-13T00:23:41.852Z,9.66
2016-04-13T00:23:51.852Z,9.66
2016-04-13T00:24:01.852Z,9.67
2016-04-13T00:24:11.867Z,9.7
2016-04-13T00:24:21.869Z,9.72
2016-04-13T00:24:31.869Z,9.72
2016-04-13T00:24:41.885Z,9.74
2016-04-13T00:24:51.900Z,9.66
2016-04-13T00:25:01.885Z,9.73
2016-04-13T00:25:11.885Z,9.81
2016-04-13T00:25:21.903Z,9.82
2016-04-13T00:25:31.903Z,9.7
2016-04-13T00:25:41.903Z,9.8
2016-04-13T00:25:51.919Z,9.77
2016-04-13T00:26:01.919Z,9.82
2016-04-13T00:26:11.919Z,9.8
2016-04-13T00:26:21.938Z,9.8
2016-04-13T00:26:31.938Z,9.8
2016-04-13T00:26:41.938Z,9.77
2016-04-13T00:26:51.953Z,9.77
2016-04-13T00:27:01.953Z,9.84
2016-04-13T00:27:11.953Z,9.84
2016-04-13T00:27:21.955Z,9.74
2016-04-13T00:27:31.971Z,9.84
2016-04-13T00:27:41.971Z,9.87
2016-04-13T00:27:51.987Z,9.87
2016-04-13T00:28:01.987Z,9.84
2016-04-13T00:28:11.987Z,9.85
2016-04-13T00:28:21.990Z,9.82
2016-04-13T00:28:31.990Z,9.85
2016-04-13T00:28:41.990Z,9.82
2016-04-13T00:28:52.005Z,9.92
2016-04-13T00:29:02.005Z,9.88
2016-04-13T00:29:12.005Z,9.94
2016-04-13T00:29:22.024Z,9.88
2016-04-13T00:29:32.024Z,9.97
2016-04-13T00:29:42.039Z,9.88
2016-04-13T00:29:52.039Z,9.97
2016-04-13T00:30:02.039Z,9.92
2016-04-13T00:30:12.039Z,9.92
2016-04-13T00:30:22.041Z,9.99
2016-04-13T00:30:32.057Z,9.95
2016-04-13T00:30:42.057Z,9.95
2016-04-13T00:30:52.073Z,9.99
2016-04-13T00:31:02.057Z,9.91
2016-04-13T00:31:12.088Z,9.95
2016-04-13T00:31:22.076Z,9.95
2016-04-13T00:31:32.076Z,9.94
2016-04-13T00:31:42.091Z,9.97
2016-04-13T00:31:52.107Z,9.92
2016-04-13T00:32:02.091Z,10.02
2016-04-13T00:32:12.091Z,10.03
2016-04-13T00:32:22.110Z,9.95
2016-04-13T00:32:32.110Z,9.97
2016-04-13T00:32:42.110Z,10.06
2016-04-13T00:32:52.126Z,10
2016-04-13T00:33:02.126Z,10.05
2016-04-13T00:33:12.126Z,10.07
2016-04-13T00:33:22.128Z,9.95
2016-04-13T00:33:32.143Z,10.02
2016-04-13T00:33:42.143Z,9.99
2016-04-13T00:33:52.159Z,10.02
2016-04-13T00:34:02.143Z,10
2016-04-13T00:34:12.159Z,10
2016-04-13T00:34:22.177Z,9.94
2016-04-13T00:34:32.177Z,9.97
2016-04-13T00:34:42.177Z,9.97
2016-04-13T00:34:52.177Z,9.94
2016-04-13T00:35:02.177Z,9.94
2016-04-13T00:35:12.177Z,9.95
2016-04-13T00:35:22.196Z,9.92
2016-04-13T00:35:32.196Z,9.94
2016-04-13T00:35:42.196Z,9.95
2016-04-13T00:35:52.212Z,9.9
2016-04-13T00:36:02.227Z,9.92
2016-04-13T00:36:12.212Z,9.97
2016-04-13T00:36:22.229Z,9.92
2016-04-13T00:36:32.229Z,9.92
2016-04-13T00:36:42.229Z,9.94
2016-04-13T00:36:52.245Z,9.9
2016-04-13T00:37:02.245Z,9.87
2016-04-13T00:37:12.245Z,9.9
2016-04-13T00:37:22.248Z,9.87
2016-04-13T00:37:32.264Z,9.81
2016-04-13T00:37:42.295Z,9.84
2016-04-13T00:37:52.279Z,9.82
2016-04-13T00:38:02.264Z,9.85
2016-04-13T00:38:12.279Z,9.84
2016-04-13T00:38:22.281Z,9.82
2016-04-13T00:38:32.281Z,9.81
2016-04-13T00:38:42.281Z,9.87
2016-04-13T00:38:52.312Z,9.81
2016-04-13T00:39:02.297Z,9.84
2016-04-13T00:39:12.297Z,9.81
2016-04-13T00:39:22.315Z,9.85
2016-04-13T00:39:32.315Z,9.82
2016-04-13T00:39:42.315Z,9.82
2016-04-13T00:39:52.331Z,9.84
2016-04-13T00:40:02.331Z,9.8
2016-04-13T00:40:12.331Z,9.85
2016-04-13T00:40:22.335Z,9.8
2016-04-13T00:40:32.351Z,9.81
2016-04-13T00:40:42.351Z,9.81
2016-04-13T00:40:52.366Z,9.82
2016-04-13T00:41:02.351Z,9.77
2016-04-13T00:41:12.366Z,9.8
2016-04-13T00:41:22.368Z,9.87
2016-04-13T00:41:32.368Z,9.77
2016-04-13T00:41:42.384Z,9.82
2016-04-13T00:41:52.384Z,9.77
2016-04-13T00:42:02.384Z,9.77
2016-04-13T00:42:12.384Z,9.8
2016-04-13T00:42:22.403Z,9.82
2016-04-13T00:42:32.403Z,9.77
2016-04-13T00:42:42.403Z,9.77
2016-04-13T00:42:52.418Z,9.74
2016-04-13T00:43:02.418Z,9.73
2016-04-13T00:43:12.418Z,9.82
2016-04-13T00:43:22.436Z,9.73
2016-04-13T00:43:32.436Z,9.81
2016-04-13T00:43:42.436Z,9.73
2016-04-13T00:43:52.451Z,9.69
2016-04-13T00:44:02.451Z,9.69
2016-04-13T00:44:12.451Z,9.7
2016-04-13T00:44:22.454Z,9.77
2016-04-13T00:44:32.454Z,9.69
2016-04-13T00:44:42.470Z,9.74
2016-04-13T00:44:52.486Z,9.73
2016-04-13T00:45:02.470Z,9.74
2016-04-13T00:45:12.470Z,9.69
2016-04-13T00:45:22.489Z,9.73
2016-04-13T00:45:32.489Z,9.72
2016-04-13T00:45:42.489Z,9.7
2016-04-13T00:45:52.520Z,9.73
2016-04-13T00:46:02.504Z,9.69
2016-04-13T00:46:12.504Z,9.8
2016-04-13T00:46:22.523Z,9.7
2016-04-13T00:46:32.523Z,9.69
2016-04-13T00:46:42.523Z,9.8
2016-04-13T00:46:52.539Z,9.73
2016-04-13T00:47:02.539Z,9.74
2016-04-13T00:47:12.539Z,9.8
2016-04-13T00:47:22.541Z,9.69
2016-04-13T00:47:32.556Z,9.67
2016-04-13T00:47:42.556Z,9.77
2016-04-13T00:47:52.572Z,9.67
2016-04-13T00:48:02.556Z,9.72
2016-04-13T00:48:12.572Z,9.8
2016-04-13T00:48:22.575Z,9.7
2016-04-13T00:48:32.575Z,9.67
2016-04-13T00:48:42.590Z,9.72
2016-04-13T00:48:52.606Z,9.67
2016-04-13T00:49:02.590Z,9.72
2016-04-13T00:49:12.590Z,9.7
2016-04-13T00:49:22.609Z,9.7
2016-04-13T00:49:32.625Z,9.7
2016-04-13T00:49:42.609Z,9.74
2016-04-13T00:49:52.625Z,9.69
2016-04-13T00:50:02.625Z,9.76
2016-04-13T00:50:12.625Z,9.74
2016-04-13T00:50:22.627Z,9.76
2016-04-13T00:50:32.642Z,9.73
2016-04-13T00:50:42.642Z,9.74
2016-04-13T00:50:52.658Z,9.74
2016-04-13T00:51:02.658Z,9.67
2016-04-13T00:51:12.658Z,9.7
2016-04-13T00:51:22.660Z,9.63
2016-04-13T00:51:32.660Z,9.72
2016-04-13T00:51:42.676Z,9.67
2016-04-13T00:51:52.691Z,9.67
2016-04-13T00:52:02.676Z,9.76
2016-04-13T00:52:12.676Z,9.67
2016-04-13T00:52:22.694Z,9.7
2016-04-13T00:52:32.694Z,9.66
2016-04-13T00:52:42.694Z,9.69
2016-04-13T00:52:52.710Z,9.67
2016-04-13T00:53:02.710Z,9.67
2016-04-13T00:53:12.710Z,9.73
2016-04-13T00:53:22.728Z,9.67
2016-04-13T00:53:32.728Z,9.7
2016-04-13T00:53:42.728Z,9.73
2016-04-13T00:53:52.744Z,9.66
2016-04-13T00:54:02.744Z,9.67
2016-04-13T00:54:12.744Z,9.67
2016-04-13T00:54:22.747Z,9.67
2016-04-13T00:54:32.747Z,9.7
2016-04-13T00:54:42.763Z,9.67
2016-04-13T00:54:52.778Z,9.66
2016-04-13T00:55:02.763Z,9.7
2016-04-13T00:55:12.778Z,9.67
2016-04-13T00:55:22.780Z,9.72
2016-04-13T00:55:32.780Z,9.73
2016-04-13T00:55:42.796Z,9.67
2016-04-13T00:55:52.796Z,9.69
2016-04-13T00:56:02.796Z,9.59
2016-04-13T00:56:12.812Z,9.62
2016-04-13T00:56:22.815Z,9.63
2016-04-13T00:56:32.830Z,9.59
2016-04-13T00:56:42.815Z,9.62
2016-04-13T00:56:52.830Z,9.64
2016-04-13T00:57:02.830Z,9.52
2016-04-13T00:57:12.830Z,9.62
2016-04-13T00:57:22.833Z,9.59
2016-04-13T00:57:32.849Z,9.54
2016-04-13T00:57:42.849Z,9.52
2016-04-13T00:57:52.864Z,9.55
2016-04-13T00:58:02.849Z,9.52
2016-04-13T00:58:12.864Z,9.55
2016-04-13T00:58:22.866Z,9.54
2016-04-13T00:58:32.866Z,9.51
2016-04-13T00:58:42.866Z,9.55
2016-04-13T00:58:52.898Z,9.54
2016-04-13T00:59:02.882Z,9.55
2016-04-13T00:59:12.882Z,9.58
2016-04-13T00:59:22.901Z,9.56
2016-04-13T00:59:32.901Z,9.51
2016-04-13T00:59:42.901Z,9.47
2016-04-13T00:59:52.916Z,9.45
2016-04-13T01:00:02.916Z,9.45
2016-04-13T01:00:12.916Z,9.48
2016-04-13T01:00:22.951Z,9.52
2016-04-13T01:00:32.935Z,9.49
2016-04-13T01:00:42.935Z,9.37
2016-04-13T01:00:52.951Z,9.42
2016-04-13T01:01:02.935Z,9.4
2016-04-13T01:01:12.951Z,9.42
2016-04-13T01:01:22.953Z,9.4
2016-04-13T01:01:32.953Z,9.44
2016-04-13T01:01:42.968Z,9.44
2016-04-13T01:01:52.984Z,9.42
2016-04-13T01:02:02.984Z,9.47
2016-04-13T01:02:12.968Z,9.44
2016-04-13T01:02:22.987Z,9.4
2016-04-13T01:02:32.987Z,9.47
2016-04-13T01:02:42.987Z,9.4
2016-04-13T01:02:53.002Z,9.44
2016-04-13T01:03:03.002Z,9.44
2016-04-13T01:03:13.002Z,9.42
2016-04-13T01:03:23.005Z,9.44
2016-04-13T01:03:33.021Z,9.42
2016-04-13T01:03:43.021Z,9.4
2016-04-13T01:03:53.037Z,9.4
2016-04-13T01:04:03.037Z,9.4
2016-04-13T01:04:13.037Z,9.39
2016-04-13T01:04:23.039Z,9.4
2016-04-13T01:04:33.039Z,9.34
2016-04-13T01:04:43.054Z,9.42
2016-04-13T01:04:53.070Z,9.42
2016-04-13T01:05:03.054Z,9.39
2016-04-13T01:05:13.070Z,9.37
2016-04-13T01:05:23.073Z,9.34
2016-04-13T01:05:33.073Z,9.33
2016-04-13T01:05:43.089Z,9.36
2016-04-13T01:05:53.089Z,9.34
2016-04-13T01:06:03.120Z,9.29
2016-04-13T01:06:13.089Z,9.4
2016-04-13T01:06:23.123Z,9.3
2016-04-13T01:06:33.107Z,9.3
2016-04-13T01:06:43.107Z,9.26
2016-04-13T01:06:53.123Z,9.29
2016-04-13T01:07:03.123Z,9.3
2016-04-13T01:07:13.123Z,9.29
2016-04-13T01:07:23.126Z,9.27
2016-04-13T01:07:33.141Z,9.24
2016-04-13T01:07:43.141Z,9.27
2016-04-13T01:07:53.141Z,9.29
2016-04-13T01:08:03.157Z,9.26
2016-04-13T01:08:13.157Z,9.21
2016-04-13T01:08:23.160Z,9.33
2016-04-13T01:08:33.176Z,9.24
2016-04-13T01:08:43.176Z,9.21
2016-04-13T01:08:53.207Z,9.22
2016-04-13T01:09:03.176Z,9.26
2016-04-13T01:09:13.176Z,9.22
2016-04-13T01:09:23.194Z,9.19
2016-04-13T01:09:33.194Z,9.27
2016-04-13T01:09:43.194Z,9.22
2016-04-13T01:09:53.210Z,9.18
2016-04-13T01:10:03.210Z,9.19
2016-04-13T01:10:13.210Z,9.19
2016-04-13T01:10:23.212Z,9.18
2016-04-13T01:10:33.228Z,9.26
2016-04-13T01:10:43.243Z,9.18
2016-04-13T01:10:53.259Z,9.24
2016-04-13T01:11:03.243Z,9.19
2016-04-13T01:11:13.243Z,9.26
2016-04-13T01:11:23.261Z,9.18
2016-04-13T01:11:33.245Z,9.19
2016-04-13T01:11:43.261Z,9.12
2016-04-13T01:11:53.292Z,9.16
2016-04-13T01:12:03.261Z,9.18
2016-04-13T01:12:13.276Z,9.16
2016-04-13T01:12:23.269Z,9.13
2016-04-13T01:12:33.284Z,9.11
2016-04-13T01:12:43.284Z,9.15
2016-04-13T01:12:53.300Z,9.16
2016-04-13T01:13:03.300Z,9.16
2016-04-13T01:13:13.300Z,9.16
2016-04-13T01:13:23.318Z,9.18
2016-04-13T01:13:33.302Z,9.15
2016-04-13T01:13:43.318Z,9.22
2016-04-13T01:13:53.333Z,9.16
2016-04-13T01:14:03.318Z,9.16
2016-04-13T01:14:13.333Z,9.16
2016-04-13T01:14:23.335Z,9.12
2016-04-13T01:14:33.335Z,9.16
2016-04-13T01:14:43.335Z,9.11
2016-04-13T01:14:53.351Z,9.16
2016-04-13T01:15:03.351Z,9.12
2016-04-13T01:15:13.366Z,9.13
2016-04-13T01:15:23.369Z,9.15
2016-04-13T01:15:33.385Z,9.11
2016-04-13T01:15:43.369Z,9.13
2016-04-13T01:15:53.385Z,9.19
2016-04-13T01:16:03.385Z,9.11
2016-04-13T01:16:13.385Z,9.05
2016-04-13T01:16:23.388Z,9.12
2016-04-13T01:16:33.404Z,9.12
2016-04-13T01:16:43.404Z,9.11
2016-04-13T01:16:53.419Z,9.12
2016-04-13T01:17:03.404Z,9.05
2016-04-13T01:17:13.419Z,9.12
2016-04-13T01:17:23.421Z,9.05
2016-04-13T01:17:33.421Z,9.05
2016-04-13T01:17:43.421Z,9.03
2016-04-13T01:17:53.437Z,9.08
2016-04-13T01:18:03.437Z,9.05
2016-04-13T01:18:13.453Z,9.05
2016-04-13T01:18:23.456Z,9.05
2016-04-13T01:18:33.456Z,9.05
2016-04-13T01:18:43.471Z,9.05
2016-04-13T01:18:53.471Z,9.02
2016-04-13T01:19:03.471Z,9.03
2016-04-13T01:19:13.471Z,9.03
2016-04-13T01:19:23.474Z,8.99
2016-04-13T01:19:33.490Z,9.05
2016-04-13T01:19:43.490Z,9.08
2016-04-13T01:19:53.505Z,8.99
2016-04-13T01:20:03.505Z,8.97
2016-04-13T01:20:13.505Z,8.96
2016-04-13T01:20:23.508Z,8.99
2016-04-13T01:20:33.524Z,8.97
2016-04-13T01:20:43.524Z,8.93
2016-04-13T01:20:53.524Z,8.97
2016-04-13T01:21:03.524Z,8.99
2016-04-13T01:21:13.555Z,8.97
2016-04-13T01:21:23.543Z,8.96
2016-04-13T01:21:33.543Z,8.99
2016-04-13T01:21:43.543Z,8.99
2016-04-13T01:21:53.558Z,8.92
2016-04-13T01:22:03.558Z,8.97
2016-04-13T01:22:13.562Z,8.95
2016-04-13T01:22:23.564Z,8.96
2016-04-13T01:22:33.580Z,8.99
2016-04-13T01:22:43.580Z,8.97
2016-04-13T01:22:53.595Z,8.96
2016-04-13T01:23:03.580Z,8.93
2016-04-13T01:23:13.595Z,9
2016-04-13T01:23:23.598Z,8.99
2016-04-13T01:23:33.598Z,8.89
2016-04-13T01:23:43.614Z,8.96
2016-04-13T01:23:53.614Z,8.95
2016-04-13T01:24:03.614Z,8.99
2016-04-13T01:24:13.614Z,8.96
2016-04-13T01:24:23.633Z,8.95
2016-04-13T01:24:33.633Z,8.97
2016-04-13T01:24:43.633Z,8.92
2016-04-13T01:24:53.633Z,8.95
2016-04-13T01:25:03.664Z,8.96
2016-04-13T01:25:13.648Z,8.96
2016-04-13T01:25:23.650Z,8.97
2016-04-13T01:25:33.666Z,8.97
2016-04-13T01:25:43.666Z,9.02
2016-04-13T01:25:53.666Z,9
2016-04-13T01:26:03.666Z,8.95
2016-04-13T01:26:13.682Z,9.02
2016-04-13T01:26:23.685Z,9
2016-04-13T01:26:33.685Z,8.99
2016-04-13T01:26:43.700Z,8.95
2016-04-13T01:26:53.700Z,8.99
2016-04-13T01:27:03.700Z,8.97
2016-04-13T01:27:13.700Z,8.96
2016-04-13T01:27:23.719Z,8.99
2016-04-13T01:27:33.719Z,8.99
2016-04-13T01:27:43.719Z,9.02
2016-04-13T01:27:53.734Z,8.99
2016-04-13T01:28:03.734Z,8.95
2016-04-13T01:28:13.734Z,9.05
2016-04-13T01:28:23.736Z,8.97
2016-04-13T01:28:33.752Z,9.02
2016-04-13T01:28:43.752Z,8.97
2016-04-13T01:28:53.783Z,8.97
2016-04-13T01:29:03.752Z,8.9
2016-04-13T01:29:13.768Z,8.96
2016-04-13T01:29:23.771Z,8.92
2016-04-13T01:29:33.771Z,8.96
2016-04-13T01:29:43.786Z,8.92
2016-04-13T01:29:53.786Z,8.96
2016-04-13T01:30:03.786Z,8.97
2016-04-13T01:30:13.786Z,8.87
2016-04-13T01:30:23.805Z,8.93
2016-04-13T01:30:33.821Z,8.89
2016-04-13T01:30:43.805Z,9
2016-04-13T01:30:53.821Z,8.9
2016-04-13T01:31:03.821Z,8.89
2016-04-13T01:31:13.821Z,8.9
2016-04-13T01:31:23.823Z,8.81
2016-04-13T01:31:33.838Z,8.93
2016-04-13T01:31:43.838Z,8.93
2016-04-13T01:31:53.854Z,9
2016-04-13T01:32:03.838Z,8.97
2016-04-13T01:32:13.854Z,8.89
2016-04-13T01:32:23.857Z,8.89
2016-04-13T01:32:33.857Z,8.89
2016-04-13T01:32:43.872Z,8.92
2016-04-13T01:32:53.888Z,8.93
2016-04-13T01:33:03.872Z,8.95
2016-04-13T01:33:13.888Z,8.86
2016-04-13T01:33:23.891Z,8.95
2016-04-13T01:33:33.891Z,8.89
2016-04-13T01:33:43.891Z,8.89
2016-04-13T01:33:53.907Z,8.87
2016-04-13T01:34:03.907Z,8.96
2016-04-13T01:34:13.907Z,8.87
2016-04-13T01:34:23.909Z,8.92
2016-04-13T01:34:33.924Z,8.86
2016-04-13T01:34:43.924Z,8.9
2016-04-13T01:34:53.940Z,8.92
2016-04-13T01:35:03.940Z,8.9
2016-04-13T01:35:13.940Z,8.87
2016-04-13T01:35:23.943Z,8.92
2016-04-13T01:35:33.943Z,8.92
2016-04-13T01:35:43.959Z,8.81
2016-04-13T01:35:53.974Z,8.92
2016-04-13T01:36:04.052Z,8.89
2016-04-13T01:36:13.974Z,8.87
2016-04-13T01:36:23.976Z,8.81
2016-04-13T01:36:33.976Z,8.87
2016-04-13T01:36:43.992Z,8.87
2016-04-13T01:36:53.992Z,8.82
2016-04-13T01:37:03.992Z,8.92
2016-04-13T01:37:13.992Z,8.89
2016-04-13T01:37:24.010Z,8.86
2016-04-13T01:37:34.010Z,8.82
2016-04-13T01:37:44.010Z,8.79
2016-04-13T01:37:54.026Z,8.89
2016-04-13T01:38:04.026Z,8.84
2016-04-13T01:38:14.026Z,8.82
2016-04-13T01:38:24.029Z,8.79
2016-04-13T01:38:34.045Z,8.89
2016-04-13T01:38:44.045Z,8.81
2016-04-13T01:38:54.060Z,8.81
2016-04-13T01:39:04.045Z,8.84
2016-04-13T01:39:14.060Z,8.82
2016-04-13T01:39:24.063Z,8.81
2016-04-13T01:39:34.079Z,8.84
2016-04-13T01:39:44.063Z,8.81
2016-04-13T01:39:54.095Z,8.84
2016-04-13T01:40:04.079Z,8.84
2016-04-13T01:40:14.079Z,8.87
2016-04-13T01:40:24.098Z,8.82
2016-04-13T01:40:34.098Z,8.82
2016-04-13T01:40:44.098Z,8.78
2016-04-13T01:40:54.113Z,8.87
2016-04-13T01:41:04.113Z,8.87
2016-04-13T01:41:14.113Z,8.87
2016-04-13T01:41:24.115Z,8.87
2016-04-13T01:41:34.131Z,8.82
2016-04-13T01:41:44.131Z,8.81
2016-04-13T01:41:54.146Z,8.81
2016-04-13T01:42:04.131Z,8.82
2016-04-13T01:42:14.146Z,8.78
2016-04-13T01:42:24.149Z,8.79
2016-04-13T01:42:34.165Z,8.89
2016-04-13T01:42:44.149Z,8.79
2016-04-13T01:42:54.165Z,8.84
2016-04-13T01:43:04.165Z,8.86
2016-04-13T01:43:14.165Z,8.84
2016-04-13T01:43:24.184Z,8.77
2016-04-13T01:43:34.184Z,8.86
2016-04-13T01:43:44.184Z,8.81
2016-04-13T01:43:54.199Z,8.78
2016-04-13T01:44:04.199Z,8.79
2016-04-13T01:44:14.215Z,8.74
2016-04-13T01:44:24.202Z,8.79
2016-04-13T01:44:34.218Z,8.75
2016-04-13T01:44:44.218Z,8.75
2016-04-13T01:44:54.234Z,8.84
2016-04-13T01:45:04.218Z,8.79
2016-04-13T01:45:14.234Z,8.78
2016-04-13T01:45:24.236Z,8.78
2016-04-13T01:45:34.236Z,8.72
2016-04-13T01:45:44.236Z,8.84
2016-04-13T01:45:54.267Z,8.79
2016-04-13T01:46:04.251Z,8.77
2016-04-13T01:46:14.251Z,8.77
2016-04-13T01:46:24.270Z,8.78
2016-04-13T01:46:34.270Z,8.79
2016-04-13T01:46:44.270Z,8.74
2016-04-13T01:46:54.285Z,8.78
2016-04-13T01:47:04.285Z,8.79
2016-04-13T01:47:14.301Z,8.78
2016-04-13T01:47:24.304Z,8.79
2016-04-13T01:47:34.304Z,8.79
2016-04-13T01:47:44.304Z,8.78
2016-04-13T01:47:54.320Z,8.77
2016-04-13T01:48:04.320Z,8.77
2016-04-13T01:48:14.320Z,8.79
2016-04-13T01:48:24.322Z,8.71
2016-04-13T01:48:34.322Z,8.72
2016-04-13T01:48:44.337Z,8.74
2016-04-13T01:48:54.353Z,8.75
2016-04-13T01:49:04.337Z,8.75
2016-04-13T01:49:14.337Z,8.79
2016-04-13T01:49:24.356Z,8.75
2016-04-13T01:49:34.356Z,8.75
2016-04-13T01:49:44.356Z,8.74
2016-04-13T01:49:54.372Z,8.77
2016-04-13T01:50:04.372Z,8.78
2016-04-13T01:50:14.372Z,8.75
2016-04-13T01:50:24.374Z,8.72
2016-04-13T01:50:34.389Z,8.72
2016-04-13T01:50:44.389Z,8.75
2016-04-13T01:50:54.405Z,8.69
2016-04-13T01:51:04.389Z,8.68
2016-04-13T01:51:14.530Z,8.75
2016-04-13T01:51:24.408Z,8.77
2016-04-13T01:51:34.423Z,8.74
2016-04-13T01:51:44.423Z,8.68
2016-04-13T01:51:54.439Z,8.79
2016-04-13T01:52:04.423Z,8.69
2016-04-13T01:52:14.439Z,8.78
2016-04-13T01:52:24.442Z,8.74
2016-04-13T01:52:34.458Z,8.69
2016-04-13T01:52:44.442Z,8.75
2016-04-13T01:52:54.458Z,8.75
2016-04-13T01:53:04.458Z,8.75
2016-04-13T01:53:14.473Z,8.72
2016-04-13T01:53:24.475Z,8.72
2016-04-13T01:53:34.475Z,8.78
2016-04-13T01:53:44.475Z,8.75
2016-04-13T01:53:54.491Z,8.69
2016-04-13T01:54:04.491Z,8.77
2016-04-13T01:54:14.491Z,8.75
2016-04-13T01:54:24.505Z,8.77
2016-04-13T01:54:34.505Z,8.75
2016-04-13T01:54:44.521Z,8.77
2016-04-13T01:54:54.536Z,8.72
2016-04-13T01:55:04.521Z,8.81
2016-04-13T01:55:14.536Z,8.77
2016-04-13T01:55:24.581Z,8.71
2016-04-13T01:55:34.581Z,8.66
2016-04-13T01:55:44.597Z,8.66
2016-04-13T01:55:54.597Z,8.74
2016-04-13T01:56:04.597Z,8.68
2016-04-13T01:56:14.597Z,8.69
2016-04-13T01:56:24.658Z,8.68
2016-04-13T01:56:34.658Z,8.68
2016-04-13T01:56:44.658Z,8.72
2016-04-13T01:56:54.674Z,8.66
2016-04-13T01:57:04.674Z,8.68
2016-04-13T01:57:14.674Z,8.64
2016-04-13T01:57:24.721Z,8.66
2016-04-13T01:57:34.737Z,8.64
2016-04-13T01:57:44.737Z,8.68
2016-04-13T01:57:54.752Z,8.72
2016-04-13T01:58:04.737Z,8.74
2016-04-13T01:58:14.752Z,8.66
2016-04-13T01:58:24.796Z,8.64
2016-04-13T01:58:34.796Z,8.66
2016-04-13T01:58:44.796Z,8.64
2016-04-13T01:58:54.812Z,8.69
2016-04-13T01:59:04.812Z,8.63
2016-04-13T01:59:14.828Z,8.64
2016-04-13T01:59:24.868Z,8.68
2016-04-13T01:59:34.868Z,8.71
2016-04-13T01:59:44.868Z,8.64
2016-04-13T01:59:54.883Z,8.68
2016-04-13T02:00:04.883Z,8.63
2016-04-13T02:00:14.883Z,8.64
2016-04-13T02:00:24.900Z,8.6
2016-04-13T02:00:34.916Z,8.68
2016-04-13T02:00:44.916Z,8.68
2016-04-13T02:00:54.947Z,8.68
2016-04-13T02:01:04.931Z,8.72
2016-04-13T02:01:14.931Z,8.72
2016-04-13T02:01:24.950Z,8.66
2016-04-13T02:01:34.950Z,8.71
2016-04-13T02:01:44.966Z,8.64
2016-04-13T02:01:54.966Z,8.63
2016-04-13T02:02:04.966Z,8.68
2016-04-13T02:02:14.966Z,8.66
2016-04-13T02:02:25.000Z,8.61
2016-04-13T02:02:35.000Z,8.64
2016-04-13T02:02:45.000Z,8.69
2016-04-13T02:02:55.015Z,8.68
2016-04-13T02:03:05.015Z,8.66
2016-04-13T02:03:15.015Z,8.69
2016-04-13T02:03:25.032Z,8.59
2016-04-13T02:03:35.048Z,8.72
2016-04-13T02:03:45.048Z,8.63
2016-04-13T02:03:55.064Z,8.66
2016-04-13T02:04:05.064Z,8.61
2016-04-13T02:04:15.064Z,8.6
2016-04-13T02:04:25.080Z,8.61
2016-04-13T02:04:35.080Z,8.68
2016-04-13T02:04:45.080Z,8.64
2016-04-13T02:04:55.111Z,8.64
2016-04-13T02:05:05.095Z,8.68
2016-04-13T02:05:15.095Z,8.64
2016-04-13T02:05:25.120Z,8.64
2016-04-13T02:05:35.120Z,8.6
2016-04-13T02:05:45.120Z,8.61
2016-04-13T02:05:55.135Z,8.66
2016-04-13T02:06:05.135Z,8.61
2016-04-13T02:06:15.151Z,8.64
2016-04-13T02:06:25.142Z,8.71
2016-04-13T02:06:35.158Z,8.69
2016-04-13T02:06:45.158Z,8.68
2016-04-13T02:06:55.174Z,8.64
2016-04-13T02:07:05.158Z,8.52
2016-04-13T02:07:15.174Z,8.63
2016-04-13T02:07:25.183Z,8.71
2016-04-13T02:07:35.198Z,8.64
2016-04-13T02:07:45.198Z,8.63
2016-04-13T02:07:55.198Z,8.66
2016-04-13T02:08:05.198Z,8.66
2016-04-13T02:08:15.214Z,8.64
2016-04-13T02:08:25.222Z,8.69
2016-04-13T02:08:35.222Z,8.66
2016-04-13T02:08:45.222Z,8.66
2016-04-13T02:08:55.238Z,8.61
2016-04-13T02:09:05.238Z,8.6
2016-04-13T02:09:15.238Z,8.61
2016-04-13T02:09:25.244Z,8.68
2016-04-13T02:09:35.259Z,8.66
2016-04-13T02:09:45.259Z,8.61
2016-04-13T02:09:55.275Z,8.63
2016-04-13T02:10:05.275Z,8.6
2016-04-13T02:10:15.275Z,8.61
2016-04-13T02:10:25.280Z,8.63
2016-04-13T02:10:35.280Z,8.59
2016-04-13T02:10:45.295Z,8.6
2016-04-13T02:10:55.311Z,8.63
2016-04-13T02:11:05.295Z,8.63
2016-04-13T02:11:15.311Z,8.56
2016-04-13T02:11:25.316Z,8.64
2016-04-13T02:11:35.332Z,8.6
2016-04-13T02:11:45.316Z,8.68
2016-04-13T02:11:55.332Z,8.69
2016-04-13T02:12:05.332Z,8.64
2016-04-13T02:12:15.332Z,8.61
2016-04-13T02:12:25.351Z,8.64
2016-04-13T02:12:35.351Z,8.66
2016-04-13T02:12:45.351Z,8.59
2016-04-13T02:12:55.367Z,8.57
2016-04-13T02:13:05.367Z,8.53
2016-04-13T02:13:15.367Z,8.56